Time;durP1;ratioP1;P1;durP2;ratioP2;P2;SDS_P1;SDS_P2;PMS_P1;PMS_P2;Temp;Humidity;BMP_temperature;BMP_pressure;BME280_temperature;BME280_humidity;BME280_pressure;Samples;Min_cycle;Max_cycle;Signal;HPM_P1;HPM_P2
2021/12/25 00:00:56;;;;;;;6.00;5.40;;;6.60;99.90;;;;;;5085549;28;20424;-42
2021/12/25 00:03:22;;;;;;;6.73;5.90;;;6.50;99.90;;;;;;5067538;28;20434;-42
2021/12/25 00:05:52;;;;;;;6.90;5.60;;;6.50;99.90;;;;;;5060642;28;20428;-43
2021/12/25 00:08:19;;;;;;;5.77;5.07;;;6.40;99.90;;;;;;5071876;28;20976;-42
2021/12/25 00:10:44;;;;;;;7.47;6.10;;;6.40;99.90;;;;;;5072019;28;20499;-43
2021/12/25 00:13:10;;;;;;;6.77;5.90;;;6.30;99.90;;;;;;5075436;28;20502;-43
2021/12/25 00:15:36;;;;;;;7.63;6.13;;;6.40;99.90;;;;;;5080169;28;20192;-43
2021/12/25 00:18:02;;;;;;;8.17;6.43;;;6.50;99.90;;;;;;5078651;28;20694;-44
2021/12/25 00:20:27;;;;;;;6.70;5.63;;;6.20;99.90;;;;;;5079772;28;20195;-42
2021/12/25 00:22:53;;;;;;;8.37;7.57;;;6.30;99.90;;;;;;5062130;28;20630;-43
2021/12/25 00:25:20;;;;;;;9.73;7.83;;;6.30;99.90;;;;;;5075768;28;20213;-45
2021/12/25 00:30:31;;;;;;;9.97;8.67;;;6.50;99.90;;;;;;5079158;28;20502;-41
2021/12/25 00:33:02;;;;;;;9.20;8.03;;;6.40;99.90;;;;;;5088138;28;20431;-42
2021/12/25 00:35:28;;;;;;;9.17;7.90;;;6.50;99.90;;;;;;5088495;28;20492;-42
2021/12/25 00:37:55;;;;;;;9.40;8.40;;;6.30;99.90;;;;;;5064379;28;20462;-43
2021/12/25 00:40:22;;;;;;;9.13;8.20;;;6.20;99.90;;;;;;5068064;28;20426;-42
2021/12/25 00:42:48;;;;;;;11.03;8.40;;;6.30;99.90;;;;;;5070053;28;20424;-42
2021/12/25 00:45:15;;;;;;;8.23;7.33;;;6.10;99.90;;;;;;5073786;28;20435;-46
2021/12/25 00:47:41;;;;;;;9.63;7.47;;;6.10;99.90;;;;;;5088591;28;20425;-43
2021/12/25 00:50:08;;;;;;;8.80;7.87;;;6.00;99.90;;;;;;5088448;28;20902;-42
2021/12/25 00:52:34;;;;;;;8.20;7.40;;;6.30;99.90;;;;;;5060701;28;20472;-43
2021/12/25 00:55:01;;;;;;;8.80;7.90;;;6.20;99.90;;;;;;5071046;28;20466;-42
2021/12/25 00:57:27;;;;;;;8.30;6.90;;;6.00;99.90;;;;;;5076068;28;20200;-42
2021/12/25 00:59:52;;;;;;;8.63;7.73;;;5.90;99.90;;;;;;5083216;28;20799;-42
2021/12/25 01:02:18;;;;;;;9.07;7.40;;;5.90;99.90;;;;;;5088002;28;20265;-42
2021/12/25 01:04:44;;;;;;;8.80;7.90;;;6.00;99.90;;;;;;5087429;28;20188;-43
2021/12/25 01:07:09;;;;;;;9.20;8.20;;;5.90;99.90;;;;;;5073147;28;20215;-42
2021/12/25 01:09:35;;;;;;;11.43;8.23;;;5.70;99.90;;;;;;5065877;28;20531;-42
2021/12/25 01:12:02;;;;;;;10.10;9.00;;;5.70;99.90;;;;;;5076839;28;20699;-42
2021/12/25 01:14:40;;;;;;;10.00;8.27;;;5.50;99.90;;;;;;5086950;28;20422;-43
2021/12/25 01:25:17;;;;;;;9.27;8.10;;;5.80;99.90;;;;;;5069452;28;20475;-42
2021/12/25 01:28:19;;;;;;;9.63;8.50;;;5.70;99.90;;;;;;5070024;28;20474;-43
2021/12/25 01:33:32;;;;;;;8.67;7.77;;;5.40;99.90;;;;;;5069685;28;20428;-42
2021/12/25 01:49:16;;;;;;;10.60;9.40;;;5.50;99.90;;;;;;5087205;28;20457;-42
2021/12/25 01:51:42;;;;;;;11.63;9.70;;;5.50;99.90;;;;;;5080546;28;20455;-41
2021/12/25 01:54:08;;;;;;;9.87;8.87;;;5.70;99.90;;;;;;5059677;28;20451;-41
2021/12/25 01:56:34;;;;;;;10.27;9.27;;;5.30;99.90;;;;;;5068972;28;20588;-42
2021/12/25 01:59:00;;;;;;;10.37;9.27;;;5.30;99.90;;;;;;5087109;28;20489;-42
2021/12/25 02:01:25;;;;;;;11.27;9.70;;;5.40;99.90;;;;;;5074217;28;20185;-41
2021/12/25 02:03:51;;;;;;;11.27;10.07;;;5.20;99.90;;;;;;5086572;28;20206;-43
2021/12/25 02:06:17;;;;;;;12.40;9.83;;;5.20;99.90;;;;;;5086968;28;20176;-42
2021/12/25 02:08:44;;;;;;;10.90;9.37;;;5.20;99.90;;;;;;5056508;28;20267;-42
2021/12/25 02:11:11;;;;;;;11.30;9.30;;;5.10;99.90;;;;;;5071934;28;20189;-42
2021/12/25 02:13:38;;;;;;;10.80;9.70;;;5.10;99.90;;;;;;5086781;28;20430;-42
2021/12/25 02:16:11;;;;;;;10.40;8.70;;;5.10;99.90;;;;;;5078762;28;20435;-43
2021/12/25 02:21:26;;;;;;;10.30;9.20;;;4.90;99.90;;;;;;5086033;28;20975;-42
2021/12/25 02:23:52;;;;;;;11.27;9.07;;;5.10;99.90;;;;;;5060602;28;20863;-41
2021/12/25 02:26:18;;;;;;;10.70;9.40;;;5.10;99.90;;;;;;5074140;28;20447;-42
2021/12/25 02:28:45;;;;;;;11.93;10.10;;;5.00;99.90;;;;;;5079501;28;20422;-43
2021/12/25 02:31:12;;;;;;;10.37;9.27;;;4.90;99.90;;;;;;5082261;28;20450;-42
2021/12/25 02:33:39;;;;;;;11.60;9.90;;;4.90;99.90;;;;;;5086590;28;20461;-44
2021/12/25 02:36:05;;;;;;;10.87;9.77;;;4.90;99.90;;;;;;5086578;28;20525;-42
2021/12/25 02:38:31;;;;;;;11.47;9.63;;;5.00;99.90;;;;;;5062249;28;20561;-42
2021/12/25 02:40:58;;;;;;;11.43;10.23;;;4.90;99.90;;;;;;5066556;28;20848;-43
2021/12/25 02:43:24;;;;;;;12.77;10.30;;;5.00;99.90;;;;;;5066014;28;20434;-41
2021/12/25 02:45:50;;;;;;;13.40;10.73;;;5.00;99.90;;;;;;5066361;28;20431;-43
2021/12/25 02:48:17;;;;;;;11.60;9.60;;;5.00;99.90;;;;;;5066466;28;20592;-41
2021/12/25 02:50:44;;;;;;;11.60;10.40;;;4.70;99.90;;;;;;5066388;28;20470;-41
2021/12/25 02:53:11;;;;;;;12.30;10.97;;;4.70;99.90;;;;;;5056459;28;20877;-42
2021/12/25 02:55:39;;;;;;;12.80;10.70;;;4.70;99.90;;;;;;5066178;28;20457;-42
2021/12/25 02:58:06;;;;;;;12.90;10.40;;;4.70;99.90;;;;;;5064948;28;20463;-42
2021/12/25 03:00:55;;;;;;;12.87;11.07;;;4.70;99.90;;;;;;5065148;28;20428;-42
2021/12/25 03:03:20;;;;;;;13.57;11.43;;;4.70;99.90;;;;;;5065405;28;20451;-43
2021/12/25 03:05:47;;;;;;;11.40;10.17;;;4.70;99.90;;;;;;5068771;28;20458;-42
2021/12/25 03:08:13;;;;;;;13.70;11.00;;;4.90;99.90;;;;;;5058249;28;20185;-41
2021/12/25 03:10:40;;;;;;;12.97;11.07;;;4.70;99.90;;;;;;5065668;28;20839;-41
2021/12/25 03:15:46;;;;;;;14.77;11.90;;;4.90;99.90;;;;;;5070096;28;20796;-42
2021/12/25 03:18:14;;;;;;;12.50;10.90;;;4.60;99.90;;;;;;5074677;28;20509;-42
2021/12/25 03:20:44;;;;;;;11.90;10.63;;;4.50;99.90;;;;;;5090065;28;20840;-43
2021/12/25 03:23:14;;;;;;;12.80;10.50;;;4.70;99.90;;;;;;5069709;28;20492;-43
2021/12/25 03:25:41;;;;;;;12.40;10.53;;;4.70;99.90;;;;;;5064860;28;20990;-42
2021/12/25 03:28:07;;;;;;;14.57;11.70;;;4.60;99.90;;;;;;5069556;28;20497;-42
2021/12/25 03:30:37;;;;;;;12.60;10.83;;;4.70;99.90;;;;;;5068745;28;20435;-42
2021/12/25 03:33:07;;;;;;;13.23;10.60;;;4.50;99.90;;;;;;5068684;28;20472;-42
2021/12/25 03:35:34;;;;;;;14.00;10.57;;;4.70;99.90;;;;;;5069620;28;20434;-41
2021/12/25 03:38:09;;;;;;;13.63;11.57;;;4.50;99.90;;;;;;5062426;28;20480;-43
2021/12/25 03:40:36;;;;;;;11.87;9.73;;;4.70;99.90;;;;;;5065746;28;20872;-42
2021/12/25 03:43:04;;;;;;;14.17;10.90;;;4.50;99.90;;;;;;5068661;28;20420;-42
2021/12/25 03:45:31;;;;;;;12.87;10.50;;;4.40;99.90;;;;;;5069341;28;20451;-43
2021/12/25 03:58:49;;;;;;;14.37;11.57;;;4.30;99.90;;;;;;5067956;28;20774;-42
2021/12/25 04:04:14;;;;;;;12.53;10.70;;;4.40;99.90;;;;;;5056565;28;20446;-42
2021/12/25 04:06:49;;;;;;;10.90;9.53;;;4.30;99.90;;;;;;5068977;28;20423;-41
2021/12/25 04:09:29;;;;;;;14.27;11.87;;;4.40;99.90;;;;;;5058765;28;20980;-42
2021/12/25 04:12:05;;;;;;;12.37;10.73;;;4.20;99.90;;;;;;5066502;28;20427;-42
2021/12/25 04:14:31;;;;;;;15.70;12.73;;;4.30;99.90;;;;;;5067783;28;20466;-42
2021/12/25 04:16:56;;;;;;;12.97;10.27;;;4.20;99.90;;;;;;5068543;28;20459;-41
2021/12/25 04:19:22;;;;;;;12.80;10.87;;;4.20;99.90;;;;;;5083261;28;20422;-42
2021/12/25 04:24:24;;;;;;;11.00;9.70;;;4.30;99.90;;;;;;5058003;28;20619;-43
2021/12/25 04:26:50;;;;;;;11.83;10.63;;;4.30;99.90;;;;;;5068562;28;20424;-42
2021/12/25 05:01:51;;;;;;;11.70;9.03;;;3.80;99.90;;;;;;5067050;28;20426;-42
2021/12/25 05:04:32;;;;;;;11.00;9.13;;;4.00;99.90;;;;;;5067379;28;20423;-43
2021/12/25 05:06:57;;;;;;;10.77;9.00;;;4.00;99.90;;;;;;5068226;28;20904;-44
2021/12/25 05:09:23;;;;;;;10.30;9.20;;;3.80;99.90;;;;;;5056638;28;20431;-44
2021/12/25 05:11:49;;;;;;;11.20;9.60;;;4.00;99.90;;;;;;5067354;28;20228;-42
2021/12/25 05:14:14;;;;;;;8.90;7.97;;;4.20;99.90;;;;;;5066067;28;20220;-43
2021/12/25 05:16:40;;;;;;;10.80;9.13;;;3.80;99.90;;;;;;5067545;28;20243;-43
2021/12/25 05:19:06;;;;;;;10.60;8.83;;;3.80;99.90;;;;;;5082583;28;20261;-41
2021/12/25 05:21:32;;;;;;;9.23;8.33;;;3.80;99.90;;;;;;5088020;28;20653;-43
2021/12/25 05:23:59;;;;;;;10.20;9.20;;;3.70;99.90;;;;;;5067380;28;20441;-42
2021/12/25 05:26:25;;;;;;;8.43;7.53;;;3.60;99.90;;;;;;5066874;28;20475;-42
2021/12/25 05:28:58;;;;;;;8.97;7.87;;;3.60;99.90;;;;;;5067114;28;20438;-42
2021/12/25 05:31:26;;;;;;;10.40;8.70;;;3.80;99.90;;;;;;5067592;28;20489;-42
2021/12/25 05:33:52;;;;;;;12.00;8.10;;;3.90;99.90;;;;;;5066713;28;20423;-43
2021/12/25 05:36:18;;;;;;;9.37;8.33;;;3.80;99.90;;;;;;5067810;28;20504;-42
2021/12/25 05:38:43;;;;;;;10.13;9.10;;;3.90;99.90;;;;;;5060353;28;20324;-42
2021/12/25 05:41:11;;;;;;;10.03;8.50;;;3.90;99.90;;;;;;5060551;28;20192;-42
2021/12/25 05:43:37;;;;;;;10.53;8.20;;;3.60;99.90;;;;;;5066263;28;20600;-42
2021/12/25 05:46:03;;;;;;;9.77;8.77;;;3.70;99.90;;;;;;5067409;28;20431;-41
2021/12/25 05:48:29;;;;;;;10.07;7.90;;;3.70;99.90;;;;;;5067052;28;20785;-43
2021/12/25 05:50:55;;;;;;;9.90;8.90;;;3.70;99.90;;;;;;5067175;28;20427;-42
2021/12/25 05:53:20;;;;;;;8.53;7.63;;;3.80;99.90;;;;;;5063542;28;20432;-43
2021/12/25 05:55:46;;;;;;;9.93;8.67;;;3.60;99.90;;;;;;5058383;28;20572;-44
2021/12/25 05:58:12;;;;;;;9.73;8.73;;;3.60;99.90;;;;;;5066858;28;20255;-42
2021/12/25 06:00:38;;;;;;;8.80;7.67;;;3.60;99.90;;;;;;5066130;28;20196;-42
2021/12/25 06:03:04;;;;;;;9.30;8.10;;;3.60;99.90;;;;;;5066586;28;20189;-41
2021/12/25 06:05:30;;;;;;;8.27;7.47;;;3.50;99.90;;;;;;5066783;28;20944;-42
2021/12/25 06:07:56;;;;;;;9.43;8.43;;;3.50;99.90;;;;;;5066747;28;20398;-42
2021/12/25 06:10:22;;;;;;;8.53;7.60;;;3.70;99.90;;;;;;5058122;28;20189;-42
2021/12/25 06:12:49;;;;;;;8.60;7.30;;;3.60;99.90;;;;;;5066295;28;20447;-42
2021/12/25 06:15:18;;;;;;;8.60;7.70;;;3.60;99.90;;;;;;5074797;28;20912;-42
2021/12/25 06:17:44;;;;;;;8.30;7.50;;;3.70;99.90;;;;;;5077837;28;20459;-42
2021/12/25 06:20:10;;;;;;;10.77;8.53;;;3.60;99.90;;;;;;5066746;28;20428;-43
2021/12/25 06:22:36;;;;;;;9.20;8.27;;;3.60;99.90;;;;;;5066656;28;20193;-42
2021/12/25 06:25:03;;;;;;;9.40;8.40;;;3.30;99.90;;;;;;5055034;28;20525;-42
2021/12/25 06:27:29;;;;;;;9.57;8.30;;;3.60;99.90;;;;;;5066979;28;20185;-42
2021/12/25 06:29:55;;;;;;;8.60;7.70;;;3.20;99.90;;;;;;5066556;28;20927;-42
2021/12/25 06:32:20;;;;;;;10.93;8.07;;;3.50;99.90;;;;;;5066748;28;20184;-42
2021/12/25 06:34:47;;;;;;;8.27;7.47;;;3.20;99.90;;;;;;5066017;28;20654;-44
2021/12/25 06:37:13;;;;;;;8.57;7.73;;;3.40;99.90;;;;;;5066427;28;20550;-43
2021/12/25 06:39:40;;;;;;;8.93;8.03;;;3.30;99.90;;;;;;5056635;28;20428;-42
2021/12/25 06:42:07;;;;;;;9.37;7.63;;;3.30;99.90;;;;;;5069715;28;20433;-42
2021/12/25 06:44:33;;;;;;;8.50;7.60;;;3.20;99.90;;;;;;5070051;28;20405;-42
2021/12/25 06:47:00;;;;;;;8.60;7.70;;;3.40;99.90;;;;;;5069083;28;20445;-42
2021/12/25 06:49:27;;;;;;;9.30;7.27;;;3.30;99.90;;;;;;5070728;28;20212;-42
2021/12/25 06:51:53;;;;;;;8.13;7.30;;;3.00;99.90;;;;;;5069776;28;20442;-43
2021/12/25 06:54:20;;;;;;;7.47;6.67;;;3.20;99.90;;;;;;5062075;28;20481;-42
2021/12/25 06:56:47;;;;;;;9.17;8.20;;;3.30;99.90;;;;;;5067950;28;20691;-42
2021/12/25 06:59:13;;;;;;;7.37;6.67;;;3.20;99.90;;;;;;5069637;28;20793;-41
2021/12/25 07:01:39;;;;;;;8.70;7.60;;;3.10;99.90;;;;;;5069918;28;20423;-43
2021/12/25 07:04:07;;;;;;;10.10;7.60;;;3.20;99.90;;;;;;5069715;28;20832;-42
2021/12/25 07:06:33;;;;;;;8.40;7.43;;;3.30;99.90;;;;;;5071382;28;20423;-42
2021/12/25 07:09:00;;;;;;;9.37;7.90;;;3.00;99.90;;;;;;5067741;28;20478;-44
2021/12/25 07:11:26;;;;;;;9.60;8.70;;;3.10;99.90;;;;;;5062438;28;20807;-43
2021/12/25 07:13:52;;;;;;;10.07;8.07;;;3.20;99.90;;;;;;5068711;28;20423;-43
2021/12/25 07:16:18;;;;;;;8.20;7.30;;;3.10;99.90;;;;;;5068847;28;20398;-42
2021/12/25 07:18:45;;;;;;;8.33;7.53;;;3.10;99.90;;;;;;5069438;28;20463;-42
2021/12/25 07:21:11;;;;;;;8.90;7.70;;;3.10;99.90;;;;;;5069250;28;20419;-41
2021/12/25 07:23:37;;;;;;;8.50;7.37;;;3.10;99.90;;;;;;5068543;28;20903;-42
2021/12/25 07:26:04;;;;;;;8.80;7.77;;;3.00;99.90;;;;;;5060659;28;20401;-42
2021/12/25 07:28:30;;;;;;;9.90;8.77;;;2.80;99.90;;;;;;5069852;28;20188;-42
2021/12/25 07:30:58;;;;;;;9.73;8.23;;;2.90;99.90;;;;;;5069797;28;20549;-42
2021/12/25 07:33:24;;;;;;;10.67;9.00;;;3.20;99.90;;;;;;5068685;28;20435;-43
2021/12/25 07:35:50;;;;;;;9.20;8.27;;;3.00;99.90;;;;;;5069593;28;20427;-42
2021/12/25 07:38:18;;;;;;;12.23;9.17;;;2.90;99.90;;;;;;5069380;28;20512;-42
2021/12/25 07:40:44;;;;;;;8.63;7.73;;;3.20;99.90;;;;;;5059595;28;20311;-42
2021/12/25 07:43:10;;;;;;;10.73;8.97;;;3.20;99.90;;;;;;5068543;28;20632;-42
2021/12/25 07:45:36;;;;;;;9.30;7.90;;;3.00;99.90;;;;;;5069251;28;20427;-42
2021/12/25 07:48:03;;;;;;;11.60;8.00;;;2.90;99.90;;;;;;5069028;28;20393;-43
2021/12/25 07:50:31;;;;;;;10.77;8.83;;;3.00;99.90;;;;;;5066685;28;20186;-42
2021/12/25 07:52:58;;;;;;;10.37;8.80;;;2.90;99.90;;;;;;5070793;28;21074;-43
2021/12/25 07:55:29;;;;;;;10.87;8.80;;;3.00;99.90;;;;;;5062873;28;20522;-42
2021/12/25 07:57:56;;;;;;;10.43;8.90;;;3.10;99.90;;;;;;5066624;28;20563;-45
2021/12/25 08:00:22;;;;;;;9.43;8.43;;;3.10;99.90;;;;;;5068107;28;20419;-43
2021/12/25 08:02:48;;;;;;;10.03;8.37;;;2.80;99.90;;;;;;5068148;28;20868;-43
2021/12/25 08:05:14;;;;;;;10.23;8.17;;;2.90;99.90;;;;;;5067844;28;20419;-42
2021/12/25 08:07:40;;;;;;;11.10;8.63;;;3.10;99.90;;;;;;5068990;28;20238;-43
2021/12/25 08:10:20;;;;;;;10.03;8.37;;;2.90;99.90;;;;;;5059885;28;20475;-42
2021/12/25 08:12:47;;;;;;;9.47;7.53;;;2.70;99.90;;;;;;5064658;28;20429;-42
2021/12/25 08:15:14;;;;;;;9.10;8.13;;;2.70;99.90;;;;;;5068283;28;20488;-43
2021/12/25 08:17:42;;;;;;;12.93;8.70;;;2.60;99.90;;;;;;5069267;28;20446;-43
2021/12/25 08:20:09;;;;;;;9.77;8.77;;;2.90;99.90;;;;;;5068981;28;20415;-43
2021/12/25 08:22:35;;;;;;;9.20;7.37;;;2.80;99.90;;;;;;5070053;28;20451;-42
2021/12/25 08:25:02;;;;;;;9.77;8.20;;;2.80;99.90;;;;;;5073255;28;20733;-43
2021/12/25 08:27:28;;;;;;;8.47;7.57;;;2.90;99.90;;;;;;5064099;28;20419;-43
2021/12/25 08:29:54;;;;;;;11.83;10.60;;;2.80;99.90;;;;;;5063484;28;21014;-41
2021/12/25 08:32:20;;;;;;;10.23;8.43;;;2.80;99.90;;;;;;5071802;28;20189;-42
2021/12/25 08:34:45;;;;;;;11.43;9.47;;;2.90;99.90;;;;;;5066989;28;20438;-43
2021/12/25 08:37:12;;;;;;;9.37;8.30;;;2.80;99.90;;;;;;5069439;28;20390;-44
2021/12/25 08:39:39;;;;;;;9.70;8.50;;;2.80;99.90;;;;;;5064179;28;20267;-44
2021/12/25 08:42:05;;;;;;;7.77;6.97;;;2.70;99.90;;;;;;5068988;28;20490;-44
2021/12/25 08:44:40;;;;;;;11.67;9.17;;;2.60;99.90;;;;;;5066866;28;20434;-43
2021/12/25 08:47:10;;;;;;;8.53;6.93;;;2.90;99.90;;;;;;5067117;28;20480;-44
2021/12/25 08:49:38;;;;;;;6.70;6.10;;;3.00;99.90;;;;;;5069441;28;20390;-43
2021/12/25 08:52:08;;;;;;;10.07;9.13;;;3.10;99.90;;;;;;5070084;28;20425;-43
2021/12/25 08:54:34;;;;;;;6.13;5.53;;;3.20;99.90;;;;;;5064259;28;21025;-42
2021/12/25 08:57:01;;;;;;;7.97;6.03;;;3.40;99.90;;;;;;5063713;28;20447;-43
2021/12/25 08:59:27;;;;;;;6.00;5.50;;;3.80;99.90;;;;;;5068218;28;20447;-43
2021/12/25 09:01:54;;;;;;;5.80;5.30;;;4.00;99.90;;;;;;5064506;28;20430;-43
2021/12/25 09:04:20;;;;;;;5.10;4.57;;;4.40;99.90;;;;;;5062715;28;20833;-44
2021/12/25 09:06:46;;;;;;;5.47;4.80;;;4.70;99.90;;;;;;5064294;28;20566;-43
2021/12/25 09:09:12;;;;;;;6.57;4.80;;;5.00;99.90;;;;;;5066148;28;20193;-43
2021/12/25 09:11:39;;;;;;;6.10;3.67;;;5.50;99.90;;;;;;5055472;28;20292;-43
2021/12/25 09:14:06;;;;;;;4.30;3.80;;;5.80;99.90;;;;;;5065312;28;20476;-45
2021/12/25 09:16:32;;;;;;;4.03;3.63;;;6.00;99.90;;;;;;5065811;28;20489;-44
2021/12/25 09:18:57;;;;;;;3.60;3.30;;;6.30;99.90;;;;;;5065621;28;20462;-43
2021/12/25 09:21:23;;;;;;;4.50;3.87;;;6.70;99.90;;;;;;5066013;28;20485;-47
2021/12/25 09:23:49;;;;;;;3.47;3.17;;;7.30;99.90;;;;;;5065376;28;20246;-45
2021/12/25 09:26:17;;;;;;;3.43;3.13;;;7.70;99.90;;;;;;5053713;28;20187;-43
2021/12/25 09:28:43;;;;;;;7.47;4.03;;;7.80;99.90;;;;;;5064391;28;20497;-43
2021/12/25 09:31:09;;;;;;;2.80;2.60;;;8.10;99.90;;;;;;5065684;28;20434;-46
2021/12/25 09:33:35;;;;;;;3.07;2.87;;;8.20;99.90;;;;;;5065235;28;20435;-46
2021/12/25 09:36:02;;;;;;;3.23;2.93;;;8.40;99.90;;;;;;5066129;28;20250;-43
2021/12/25 09:38:30;;;;;;;3.67;3.37;;;8.30;99.90;;;;;;5065632;28;20223;-43
2021/12/25 09:41:00;;;;;;;3.50;3.20;;;8.60;99.90;;;;;;5071926;28;20487;-43
2021/12/25 09:43:26;;;;;;;3.57;2.83;;;8.40;99.90;;;;;;5062321;28;20427;-46
2021/12/25 09:45:53;;;;;;;3.13;2.70;;;8.70;99.90;;;;;;5065562;28;20485;-45
2021/12/25 09:48:20;;;;;;;5.00;4.60;;;9.00;99.90;;;;;;5066066;28;20420;-46
2021/12/25 09:50:46;;;;;;;2.80;2.60;;;8.70;99.90;;;;;;5065687;28;20419;-44
2021/12/25 09:53:13;;;;;;;2.40;2.20;;;9.10;99.90;;;;;;5064518;28;20430;-42
2021/12/25 09:55:40;;;;;;;3.10;2.80;;;8.80;99.40;;;;;;5058577;28;20443;-46
2021/12/25 09:58:07;;;;;;;2.70;2.50;;;8.80;99.10;;;;;;5058690;28;20462;-47
2021/12/25 10:00:35;;;;;;;2.50;2.17;;;8.80;99.50;;;;;;5062224;28;20983;-43
2021/12/25 10:03:02;;;;;;;2.63;2.13;;;8.70;99.60;;;;;;5065245;28;20833;-44
2021/12/25 10:05:35;;;;;;;2.33;2.13;;;8.60;99.00;;;;;;5063967;28;20536;-44
2021/12/25 10:08:17;;;;;;;3.17;2.87;;;8.30;99.10;;;;;;5076777;28;20463;-44
2021/12/25 10:10:50;;;;;;;2.37;2.17;;;8.30;99.20;;;;;;5057276;28;20444;-47
2021/12/25 10:13:28;;;;;;;2.20;2.00;;;8.30;99.20;;;;;;5062580;28;20473;-45
2021/12/25 10:15:57;;;;;;;2.60;2.13;;;8.40;99.30;;;;;;5069410;28;20454;-43
2021/12/25 10:18:28;;;;;;;2.50;2.30;;;8.50;98.50;;;;;;5064176;28;21174;-43
2021/12/25 10:20:55;;;;;;;3.93;2.80;;;8.00;99.00;;;;;;5067834;28;20994;-44
2021/12/25 10:23:28;;;;;;;2.60;2.40;;;8.20;99.30;;;;;;5068022;28;20444;-46
2021/12/25 10:26:00;;;;;;;2.43;2.10;;;8.10;99.60;;;;;;5062279;28;20444;-44
2021/12/25 10:28:38;;;;;;;2.70;2.00;;;8.10;99.70;;;;;;5066887;28;20712;-44
2021/12/25 10:31:11;;;;;;;1.93;1.83;;;8.30;99.40;;;;;;5068202;28;20994;-43
2021/12/25 10:33:44;;;;;;;1.90;1.80;;;8.00;98.90;;;;;;5066854;28;20419;-44
2021/12/25 10:36:35;;;;;;;2.30;2.10;;;8.30;98.80;;;;;;5069281;28;20449;-43
2021/12/25 10:39:06;;;;;;;2.50;2.30;;;8.00;99.40;;;;;;5067516;28;20451;-43
2021/12/25 10:41:35;;;;;;;2.10;1.93;;;8.10;99.40;;;;;;5062011;28;20767;-45
2021/12/25 10:44:15;;;;;;;6.77;6.20;;;8.10;99.40;;;;;;5066627;28;20416;-44
2021/12/25 10:47:09;;;;;;;2.27;2.07;;;8.00;99.40;;;;;;5067747;28;20422;-46
2021/12/25 10:49:41;;;;;;;2.87;1.97;;;8.00;99.50;;;;;;5065205;28;20462;-43
2021/12/25 10:52:10;;;;;;;2.33;2.13;;;8.00;99.20;;;;;;5068026;28;20415;-45
2021/12/25 10:54:46;;;;;;;2.70;2.40;;;8.20;98.90;;;;;;5068339;28;20446;-48
2021/12/25 10:57:35;;;;;;;2.70;2.50;;;8.10;99.10;;;;;;5068854;28;20434;-43
2021/12/25 11:00:08;;;;;;;2.87;2.67;;;7.90;98.80;;;;;;5069518;28;20474;-46
2021/12/25 11:02:42;;;;;;;2.07;1.87;;;8.00;99.30;;;;;;5068823;28;20502;-43
2021/12/25 11:05:32;;;;;;;4.60;4.20;;;7.80;99.20;;;;;;5081058;28;20484;-45
2021/12/25 11:08:07;;;;;;;2.80;2.47;;;7.70;99.50;;;;;;5075010;28;20513;-44
2021/12/25 11:10:47;;;;;;;2.20;2.00;;;7.50;99.10;;;;;;5066217;28;20429;-43
2021/12/25 11:13:25;;;;;;;6.93;6.33;;;7.10;99.50;;;;;;5063535;28;20817;-45
2021/12/25 11:15:57;;;;;;;3.80;3.50;;;7.00;99.90;;;;;;5066892;28;20700;-43
2021/12/25 11:18:23;;;;;;;3.80;3.03;;;6.80;99.90;;;;;;5063604;28;20458;-42
2021/12/25 11:20:49;;;;;;;2.60;2.40;;;6.70;99.90;;;;;;5066443;28;20488;-46
2021/12/25 11:23:16;;;;;;;4.30;2.60;;;6.80;99.90;;;;;;5068083;28;20613;-43
2021/12/25 11:25:43;;;;;;;3.03;2.50;;;6.80;99.90;;;;;;5065658;28;20247;-46
2021/12/25 11:28:12;;;;;;;2.53;2.33;;;6.90;99.90;;;;;;5061201;28;20420;-45
2021/12/25 11:30:41;;;;;;;2.20;2.00;;;6.60;99.90;;;;;;5068613;28;20423;-43
2021/12/25 11:33:07;;;;;;;2.47;2.10;;;6.70;99.90;;;;;;5066953;28;20790;-45
2021/12/25 11:35:35;;;;;;;2.37;2.10;;;6.70;99.90;;;;;;5068305;28;20423;-45
2021/12/25 11:38:04;;;;;;;3.00;2.27;;;6.80;99.90;;;;;;5068398;28;21042;-43
2021/12/25 11:40:34;;;;;;;4.43;2.20;;;6.80;99.90;;;;;;5068035;28;20779;-43
2021/12/25 11:43:03;;;;;;;3.60;2.70;;;6.90;99.90;;;;;;5056278;28;20426;-43
2021/12/25 11:45:40;;;;;;;3.13;2.00;;;7.20;99.30;;;;;;5061825;28;20855;-42
2021/12/25 11:48:16;;;;;;;2.60;2.20;;;7.10;99.00;;;;;;5069110;28;20415;-43
2021/12/25 11:50:46;;;;;;;3.10;2.47;;;6.80;99.30;;;;;;5067168;28;20883;-43
2021/12/25 11:58:52;;;;;;;2.70;2.20;;;7.30;99.10;;;;;;5065509;28;20525;-44
2021/12/25 12:01:37;;;;;;;2.23;2.03;;;7.10;98.40;;;;;;5065640;28;20411;-42
2021/12/25 12:04:18;;;;;;;2.43;2.23;;;7.20;98.10;;;;;;5066202;28;20415;-43
2021/12/25 12:06:46;;;;;;;2.10;2.00;;;7.60;98.10;;;;;;5067912;28;20799;-43
2021/12/25 12:09:32;;;;;;;5.50;5.03;;;7.80;97.20;;;;;;5066575;28;20423;-42
2021/12/25 12:12:03;;;;;;;3.13;1.90;;;8.60;96.00;;;;;;5060332;28;20430;-44
2021/12/25 12:14:29;;;;;;;2.10;1.90;;;9.70;93.90;;;;;;5066358;28;20510;-43
2021/12/25 12:17:20;;;;;;;2.77;1.73;;;10.30;91.70;;;;;;5065676;28;21170;-42
2021/12/25 12:19:48;;;;;;;2.80;1.80;;;10.50;91.30;;;;;;5056578;28;20435;-44
2021/12/25 12:25:14;;;;;;;1.77;1.67;;;10.50;88.50;;;;;;5065597;28;20423;-45
2021/12/25 12:28:02;;;;;;;1.73;1.63;;;9.70;90.90;;;;;;5064329;28;20434;-42
2021/12/25 12:30:31;;;;;;;3.00;2.00;;;8.90;92.50;;;;;;5064760;28;20913;-43
2021/12/25 12:32:59;;;;;;;1.67;1.57;;;8.30;93.90;;;;;;5065016;28;20420;-43
2021/12/25 12:35:38;;;;;;;2.03;1.40;;;7.90;94.80;;;;;;5065280;28;20416;-43
2021/12/25 12:38:26;;;;;;;2.10;1.60;;;7.60;95.50;;;;;;5077915;28;20524;-42
2021/12/25 12:41:11;;;;;;;1.73;1.63;;;7.10;96.20;;;;;;5063567;28;20419;-42
2021/12/25 12:43:59;;;;;;;1.87;1.70;;;7.20;96.50;;;;;;5060149;28;20502;-42
2021/12/25 12:46:50;;;;;;;1.30;1.20;;;7.00;96.60;;;;;;5067797;28;20763;-42
2021/12/25 12:49:31;;;;;;;2.60;1.60;;;6.80;97.30;;;;;;5064889;28;20415;-43
2021/12/25 12:52:14;;;;;;;1.63;1.53;;;6.70;97.10;;;;;;5065209;28;20517;-43
2021/12/25 12:54:56;;;;;;;2.00;1.90;;;6.70;97.30;;;;;;5066123;28;20423;-42
2021/12/25 12:57:25;;;;;;;1.73;1.60;;;6.50;97.50;;;;;;5057018;28;20788;-43
2021/12/25 12:59:59;;;;;;;1.70;1.60;;;6.30;97.80;;;;;;5061847;28;20446;-42
2021/12/25 13:02:30;;;;;;;2.40;1.70;;;6.20;96.90;;;;;;5066095;28;20427;-42
2021/12/25 13:05:01;;;;;;;1.50;1.40;;;6.30;97.40;;;;;;5065584;28;20415;-48
2021/12/25 13:07:30;;;;;;;1.77;1.40;;;6.10;97.20;;;;;;5065491;28;20429;-45
2021/12/25 13:10:16;;;;;;;1.87;1.37;;;5.90;97.80;;;;;;5064056;28;20423;-44
2021/12/25 13:12:44;;;;;;;1.50;1.33;;;5.70;98.00;;;;;;5055020;28;20447;-45
2021/12/25 13:15:18;;;;;;;1.90;1.47;;;5.60;97.50;;;;;;5065211;28;20458;-44
2021/12/25 13:17:55;;;;;;;2.10;1.30;;;5.90;98.20;;;;;;5066832;28;20450;-45
2021/12/25 13:20:46;;;;;;;2.10;1.40;;;5.70;98.30;;;;;;5073152;28;20438;-42
2021/12/25 13:23:27;;;;;;;1.90;1.30;;;5.70;98.00;;;;;;5066635;28;20728;-43
2021/12/25 13:25:59;;;;;;;1.20;1.00;;;5.70;97.70;;;;;;5062948;28;20434;-47
2021/12/25 13:28:27;;;;;;;1.07;0.97;;;5.40;97.20;;;;;;5059675;28;20489;-44
2021/12/25 13:31:07;;;;;;;1.20;1.00;;;5.40;97.90;;;;;;5065831;28;20423;-42
2021/12/25 13:33:41;;;;;;;1.10;1.00;;;5.20;97.00;;;;;;5065185;28;20431;-43
2021/12/25 13:36:10;;;;;;;1.80;1.20;;;5.20;97.70;;;;;;5065533;28;20484;-44
2021/12/25 13:38:46;;;;;;;2.43;1.50;;;5.20;97.70;;;;;;5066010;28;20655;-47
2021/12/25 13:41:12;;;;;;;1.63;1.30;;;5.00;97.80;;;;;;5074310;28;20454;-43
2021/12/25 13:43:38;;;;;;;1.70;1.50;;;5.20;97.70;;;;;;5063355;28;20568;-42
2021/12/25 13:46:04;;;;;;;1.60;1.17;;;5.20;97.70;;;;;;5066121;28;20432;-46
2021/12/25 13:48:40;;;;;;;1.90;1.30;;;5.20;97.00;;;;;;5064943;28;20192;-46
2021/12/25 13:51:06;;;;;;;2.20;1.40;;;5.50;97.00;;;;;;5064111;28;20430;-42
2021/12/25 13:53:32;;;;;;;1.27;1.07;;;5.20;97.40;;;;;;5065541;28;20441;-45
2021/12/25 13:56:07;;;;;;;1.30;1.20;;;5.10;97.30;;;;;;5066245;28;20806;-46
2021/12/25 13:58:33;;;;;;;1.53;1.20;;;4.80;96.80;;;;;;5067375;28;20475;-41
2021/12/25 14:01:00;;;;;;;1.40;1.20;;;4.90;97.30;;;;;;5063838;28;20752;-47
2021/12/25 14:03:28;;;;;;;1.33;1.23;;;4.90;96.90;;;;;;5065485;28;20929;-41
2021/12/25 14:05:54;;;;;;;1.23;1.13;;;4.60;97.00;;;;;;5048138;28;20415;-44
2021/12/25 14:08:23;;;;;;;2.50;1.03;;;4.60;96.70;;;;;;5065878;28;20423;-42
2021/12/25 14:10:50;;;;;;;1.43;1.20;;;4.40;96.70;;;;;;5066190;28;20454;-43
2021/12/25 14:13:19;;;;;;;1.40;1.03;;;4.60;96.20;;;;;;5055182;28;20543;-42
2021/12/25 14:15:51;;;;;;;1.30;1.20;;;4.70;96.80;;;;;;5065196;28;20456;-42
2021/12/25 14:18:19;;;;;;;1.20;1.07;;;4.50;97.70;;;;;;5071158;28;20465;-43
2021/12/25 14:20:45;;;;;;;1.23;1.13;;;4.60;96.50;;;;;;5080224;28;20427;-42
2021/12/25 14:23:19;;;;;;;1.33;1.23;;;4.40;96.50;;;;;;5085228;28;20440;-42
2021/12/25 14:25:51;;;;;;;1.47;1.17;;;4.50;96.50;;;;;;5083928;28;20792;-41
2021/12/25 14:28:20;;;;;;;1.90;1.17;;;4.30;96.70;;;;;;5053412;28;20492;-41
2021/12/25 14:31:00;;;;;;;1.37;1.27;;;4.20;96.80;;;;;;5065300;28;20483;-42
2021/12/25 14:33:27;;;;;;;1.30;1.00;;;4.20;96.80;;;;;;5065074;28;20423;-45